createdAt,value
2019-02-25T00:00:16.995Z,4.00
2019-02-25T00:02:45.486Z,4.00
2019-02-25T00:05:14.286Z,3.90
2019-02-25T00:07:42.724Z,4.00
2019-02-25T00:10:11.503Z,4.00
2019-02-25T00:12:39.938Z,3.90
2019-02-25T00:15:10.106Z,4.00
2019-02-25T00:17:40.253Z,3.80
2019-02-25T00:20:11.822Z,3.70
2019-02-25T00:22:40.251Z,3.80
2019-02-25T00:25:13.071Z,4.00
2019-02-25T00:27:41.471Z,4.10
2019-02-25T00:30:12.159Z,4.10
2019-02-25T00:32:40.571Z,4.00
2019-02-25T00:35:09.131Z,3.60
2019-02-25T00:37:37.646Z,3.80
2019-02-25T00:40:08.474Z,3.90
2019-02-25T00:42:36.926Z,4.10
2019-02-25T00:45:08.557Z,4.00
2019-02-25T00:47:37.186Z,3.80
2019-02-25T00:50:11.206Z,3.90
2019-02-25T00:52:39.622Z,4.00
2019-02-25T00:55:09.107Z,4.00
2019-02-25T00:57:37.714Z,3.90
2019-02-25T01:00:20.415Z,4.00
2019-02-25T01:02:49.057Z,4.00
2019-02-25T01:05:17.616Z,3.90
2019-02-25T01:07:46.389Z,3.90
2019-02-25T01:10:15.832Z,3.90
2019-02-25T01:12:45.892Z,3.30
2019-02-25T01:15:14.960Z,2.90
2019-02-25T01:17:43.387Z,3.20
2019-02-25T01:20:14.098Z,3.50
2019-02-25T01:22:42.655Z,3.20
2019-02-25T01:25:12.526Z,3.40
2019-02-25T01:27:41.049Z,3.50
2019-02-25T01:30:18.362Z,3.30
2019-02-25T01:32:46.778Z,3.10
2019-02-25T01:35:15.471Z,3.30
2019-02-25T01:37:43.955Z,3.50
2019-02-25T01:40:14.110Z,3.70
2019-02-25T01:42:42.584Z,3.60
2019-02-25T01:45:13.422Z,3.70
2019-02-25T01:47:41.971Z,3.40
2019-02-25T01:50:11.335Z,3.50
2019-02-25T01:52:39.836Z,3.40
2019-02-25T01:55:09.990Z,3.40
2019-02-25T01:57:38.486Z,3.40
2019-02-25T02:00:13.094Z,2.90
2019-02-25T02:02:41.522Z,3.20
2019-02-25T02:05:10.290Z,3.30
2019-02-25T02:07:38.865Z,3.40
2019-02-25T02:10:10.245Z,3.50
2019-02-25T02:12:38.787Z,3.50
2019-02-25T02:15:10.235Z,3.40
2019-02-25T02:17:38.648Z,3.30
2019-02-25T02:20:09.898Z,3.10
2019-02-25T02:22:38.326Z,2.60
2019-02-25T02:25:08.791Z,2.70
2019-02-25T02:27:37.199Z,2.90
2019-02-25T02:30:17.719Z,2.60
2019-02-25T02:32:46.276Z,2.50
2019-02-25T02:35:14.766Z,2.90
2019-02-25T02:37:43.206Z,3.00
2019-02-25T02:40:13.057Z,3.10
2019-02-25T02:42:44.679Z,3.20
2019-02-25T02:45:16.272Z,3.20
2019-02-25T02:47:47.819Z,3.20
2019-02-25T02:50:23.545Z,3.20
2019-02-25T02:52:51.951Z,3.20
2019-02-25T02:55:20.349Z,3.20
2019-02-25T02:57:48.782Z,3.20
2019-02-25T03:00:19.060Z,3.20
2019-02-25T03:02:47.495Z,3.20
2019-02-25T03:05:16.950Z,3.20
2019-02-25T03:07:45.558Z,3.20
2019-02-25T03:10:16.105Z,3.10
2019-02-25T03:12:44.580Z,3.10
2019-02-25T03:15:22.811Z,3.00
2019-02-25T03:17:51.219Z,3.00
2019-02-25T03:20:19.699Z,3.10
2019-02-25T03:22:48.198Z,3.00
2019-02-25T03:25:17.694Z,3.00
2019-02-25T03:27:46.175Z,3.10
2019-02-25T03:30:21.751Z,3.00
2019-02-25T03:32:50.227Z,3.00
2019-02-25T03:35:19.012Z,3.10
2019-02-25T03:37:47.498Z,2.90
2019-02-25T03:40:20.823Z,2.90
2019-02-25T03:42:49.310Z,2.90
2019-02-25T03:45:19.007Z,2.90
2019-02-25T03:47:47.607Z,2.90
2019-02-25T03:50:16.089Z,3.00
2019-02-25T03:52:44.504Z,2.70
2019-02-25T03:55:15.746Z,2.60
2019-02-25T03:57:44.297Z,2.40
2019-02-25T04:00:18.311Z,2.30
2019-02-25T04:02:46.917Z,2.30
2019-02-25T04:05:15.343Z,2.10
2019-02-25T04:07:43.822Z,1.70
2019-02-25T04:10:13.971Z,1.80
2019-02-25T04:12:42.458Z,2.10
2019-02-25T04:15:13.204Z,2.40
2019-02-25T04:17:41.621Z,2.00
2019-02-25T04:20:12.866Z,2.20
2019-02-25T04:22:41.286Z,2.20
2019-02-25T04:25:09.688Z,2.40
2019-02-25T04:27:38.134Z,2.50
2019-02-25T04:30:15.237Z,2.60
2019-02-25T04:32:43.717Z,2.40
2019-02-25T04:35:13.386Z,2.30
2019-02-25T04:37:41.991Z,2.50
2019-02-25T04:40:14.903Z,2.60
2019-02-25T04:42:43.318Z,2.70
2019-02-25T04:45:19.709Z,2.70
2019-02-25T04:47:48.113Z,2.70
2019-02-25T04:50:16.719Z,2.70
2019-02-25T04:52:45.135Z,2.50
2019-02-25T04:55:14.777Z,2.60
2019-02-25T04:57:43.438Z,2.60
2019-02-25T05:00:16.818Z,2.60
2019-02-25T05:02:45.259Z,2.60
2019-02-25T05:05:13.723Z,2.60
2019-02-25T05:07:42.198Z,2.70
2019-02-25T05:10:12.669Z,2.60
2019-02-25T05:12:42.719Z,2.70
2019-02-25T05:15:13.214Z,2.60
2019-02-25T05:17:41.638Z,2.60
2019-02-25T05:20:10.304Z,2.60
2019-02-25T05:22:38.706Z,2.50
2019-02-25T05:25:09.482Z,2.60
2019-02-25T05:27:37.994Z,2.60
2019-02-25T05:30:09.548Z,2.60
2019-02-25T05:32:37.980Z,2.50
2019-02-25T05:35:08.728Z,2.50
2019-02-25T05:37:37.172Z,2.50
2019-02-25T05:40:16.436Z,2.50
2019-02-25T05:42:44.852Z,2.40
2019-02-25T05:45:14.438Z,2.40
2019-02-25T05:47:43.078Z,2.30
2019-02-25T05:50:16.650Z,2.30
2019-02-25T05:52:45.067Z,2.30
2019-02-25T05:55:14.657Z,2.30
2019-02-25T05:57:43.062Z,2.30
2019-02-25T06:00:15.799Z,2.20
2019-02-25T06:02:44.208Z,1.80
2019-02-25T06:05:12.708Z,1.70
2019-02-25T06:07:41.115Z,2.00
2019-02-25T06:10:10.986Z,2.10
2019-02-25T06:12:39.408Z,2.10
2019-02-25T06:15:17.083Z,2.10
2019-02-25T06:17:45.573Z,2.20
2019-02-25T06:20:15.782Z,2.20
2019-02-25T06:22:44.380Z,2.30
2019-02-25T06:25:16.253Z,2.20
2019-02-25T06:27:44.702Z,2.20
2019-02-25T06:30:20.797Z,2.20
2019-02-25T06:32:49.300Z,2.20
2019-02-25T06:35:17.863Z,1.90
2019-02-25T06:37:46.403Z,2.10
2019-02-25T06:40:20.640Z,2.20
2019-02-25T06:42:49.067Z,2.20
2019-02-25T06:45:20.086Z,2.20
2019-02-25T06:47:48.494Z,2.10
2019-02-25T06:50:16.922Z,1.90
2019-02-25T06:52:45.354Z,2.00
2019-02-25T06:55:15.611Z,2.20
2019-02-25T06:57:44.199Z,2.30
2019-02-25T07:00:23.352Z,2.30
2019-02-25T07:02:51.783Z,2.40
2019-02-25T07:05:27.762Z,2.20
2019-02-25T07:08:00.524Z,2.40
2019-02-25T07:10:33.571Z,2.50
2019-02-25T07:13:19.935Z,2.60
2019-02-25T07:15:50.004Z,2.50
2019-02-25T07:18:23.018Z,2.60
2019-02-25T07:20:55.576Z,2.50
2019-02-25T07:23:25.637Z,2.70
2019-02-25T07:25:58.646Z,2.80
2019-02-25T07:28:34.263Z,2.80
2019-02-25T07:31:20.713Z,2.90
2019-02-25T07:33:50.779Z,3.00
2019-02-25T07:36:29.739Z,3.00
2019-02-25T07:39:18.028Z,3.00
2019-02-25T07:41:48.074Z,3.20
2019-02-25T07:44:20.850Z,3.30
2019-02-25T07:46:50.918Z,3.00
2019-02-25T07:49:32.995Z,3.30
2019-02-25T07:52:05.927Z,3.60
2019-02-25T07:54:38.665Z,3.50
2019-02-25T07:57:08.739Z,3.30
2019-02-25T07:59:38.791Z,3.60
2019-02-25T08:02:08.859Z,3.80
2019-02-25T08:04:38.922Z,4.10
2019-02-25T08:07:24.530Z,4.00
2019-02-25T08:10:03.799Z,3.90
2019-02-25T08:12:49.846Z,4.00
2019-02-25T08:15:32.182Z,3.90
2019-02-25T08:18:14.038Z,4.10
2019-02-25T08:20:59.139Z,4.30
2019-02-25T08:23:38.159Z,4.60
2019-02-25T08:26:11.362Z,4.80
2019-02-25T08:28:56.666Z,5.10
2019-02-25T08:31:26.736Z,5.40
2019-02-25T08:34:05.898Z,5.80
2019-02-25T08:37:02.162Z,5.60
2019-02-25T08:39:36.455Z,5.60
2019-02-25T08:42:06.959Z,5.70
2019-02-25T08:44:39.895Z,5.80
2019-02-25T08:47:12.923Z,5.90
2019-02-25T08:49:45.498Z,5.90
2019-02-25T08:52:13.988Z,5.90
2019-02-25T08:54:42.496Z,6.00
2019-02-25T08:57:10.910Z,6.10
2019-02-25T08:59:39.342Z,6.30
2019-02-25T09:02:07.834Z,6.40
2019-02-25T09:04:36.258Z,6.60
2019-02-25T09:07:04.775Z,6.70
2019-02-25T09:09:33.207Z,6.80
2019-02-25T09:12:01.693Z,6.80
2019-02-25T09:14:30.135Z,7.00
2019-02-25T09:16:58.577Z,7.20
2019-02-25T09:19:27.008Z,7.30
2019-02-25T09:21:55.446Z,7.50
2019-02-25T09:24:23.863Z,7.70
2019-02-25T09:26:52.298Z,8.00
2019-02-25T09:29:20.707Z,8.10
2019-02-25T09:31:49.159Z,8.30
2019-02-25T09:34:17.566Z,8.40
2019-02-25T09:36:45.991Z,8.60
2019-02-25T09:39:16.702Z,8.80
2019-02-25T09:41:45.263Z,9.10
2019-02-25T09:44:13.683Z,9.30
2019-02-25T09:46:42.105Z,9.40
2019-02-25T09:49:10.587Z,9.50
2019-02-25T09:51:39.023Z,9.90
2019-02-25T09:54:07.476Z,10.30
2019-02-25T09:56:37.348Z,10.80
2019-02-25T09:59:06.006Z,11.10
2019-02-25T10:01:34.520Z,11.20
2019-02-25T10:04:02.947Z,11.20
2019-02-25T10:06:31.430Z,11.10
2019-02-25T10:08:59.846Z,11.30
2019-02-25T10:11:28.290Z,11.20
2019-02-25T10:13:56.746Z,11.30
2019-02-25T10:16:25.187Z,11.50
2019-02-25T10:18:53.617Z,11.40
2019-02-25T10:21:22.082Z,11.40
2019-02-25T10:23:50.519Z,11.60
2019-02-25T10:26:18.933Z,11.60
2019-02-25T10:28:47.395Z,11.70
2019-02-25T10:31:17.435Z,11.80
2019-02-25T10:33:46.134Z,11.80
2019-02-25T10:36:14.542Z,11.80
2019-02-25T10:38:43.003Z,11.90
2019-02-25T10:41:11.444Z,12.10
2019-02-25T10:43:39.871Z,12.10
2019-02-25T10:46:09.504Z,12.10
2019-02-25T10:48:38.619Z,12.30
2019-02-25T10:51:09.181Z,12.50
2019-02-25T10:53:37.399Z,12.70
2019-02-25T10:56:11.671Z,13.20
2019-02-25T10:58:40.103Z,13.50
2019-02-25T11:01:13.369Z,13.70
2019-02-25T11:03:38.747Z,13.80
2019-02-25T11:06:07.186Z,14.30
2019-02-25T11:08:37.367Z,14.30
2019-02-25T11:11:07.732Z,14.20
2019-02-25T11:13:36.667Z,14.10
2019-02-25T11:16:05.660Z,14.20
2019-02-25T11:18:34.291Z,14.20
2019-02-25T11:21:03.663Z,14.20
2019-02-25T11:23:32.989Z,14.20
2019-02-25T11:26:02.220Z,14.30
2019-02-25T11:28:31.845Z,14.50
2019-02-25T11:31:01.073Z,14.60
2019-02-25T11:33:30.312Z,14.70
2019-02-25T11:35:59.667Z,14.70
2019-02-25T11:38:28.818Z,14.70
2019-02-25T11:40:59.744Z,14.70
2019-02-25T11:43:28.373Z,14.60
2019-02-25T11:45:56.812Z,14.60
2019-02-25T11:48:25.320Z,14.60
2019-02-25T11:50:53.800Z,14.70
2019-02-25T11:53:22.873Z,14.70
2019-02-25T11:55:51.311Z,14.50
2019-02-25T11:58:19.740Z,14.50
2019-02-25T12:00:48.187Z,14.50
2019-02-25T12:03:16.658Z,14.60
2019-02-25T12:05:45.073Z,14.70
2019-02-25T12:08:13.517Z,14.70
2019-02-25T12:10:41.952Z,15.00
2019-02-25T12:13:10.382Z,15.20
2019-02-25T12:15:38.822Z,15.60
2019-02-25T12:18:07.311Z,15.90
2019-02-25T12:20:35.857Z,16.80
2019-02-25T12:23:04.350Z,17.30
2019-02-25T12:25:32.845Z,17.40
2019-02-25T12:28:01.374Z,17.10
2019-02-25T12:30:30.199Z,16.90
2019-02-25T12:32:58.687Z,16.70
2019-02-25T12:35:27.128Z,16.40
2019-02-25T12:37:55.543Z,15.80
2019-02-25T12:40:24.054Z,15.30
2019-02-25T12:42:52.649Z,15.00
2019-02-25T12:45:21.144Z,14.90
2019-02-25T12:47:49.586Z,14.90
2019-02-25T12:50:19.077Z,15.00
2019-02-25T12:52:47.562Z,15.00
2019-02-25T12:55:18.000Z,14.90
2019-02-25T12:57:46.667Z,15.00
2019-02-25T13:00:17.512Z,14.80
2019-02-25T13:02:46.060Z,15.00
2019-02-25T13:05:22.198Z,15.30
2019-02-25T13:07:50.767Z,15.50
2019-02-25T13:10:19.520Z,15.70
2019-02-25T13:12:48.037Z,15.80
2019-02-25T13:15:21.449Z,15.80
2019-02-25T13:17:49.912Z,15.70
2019-02-25T13:20:18.393Z,15.70
2019-02-25T13:22:46.976Z,15.70
2019-02-25T13:25:18.600Z,15.50
2019-02-25T13:27:47.041Z,15.50
2019-02-25T13:30:16.663Z,15.40
2019-02-25T13:32:45.098Z,15.20
2019-02-25T13:35:14.755Z,15.10
2019-02-25T13:37:43.480Z,15.20
2019-02-25T13:40:15.095Z,15.10
2019-02-25T13:42:43.802Z,15.20
2019-02-25T13:45:17.676Z,15.10
2019-02-25T13:47:46.658Z,15.20
2019-02-25T13:50:19.452Z,15.10
2019-02-25T13:52:49.081Z,15.00
2019-02-25T13:55:19.518Z,15.20
2019-02-25T13:57:48.023Z,15.30
2019-02-25T14:00:20.987Z,15.20
2019-02-25T14:02:49.668Z,15.20
2019-02-25T14:05:18.227Z,15.10
2019-02-25T14:07:46.786Z,15.10
2019-02-25T14:10:16.658Z,15.10
2019-02-25T14:12:45.291Z,15.00
2019-02-25T14:15:16.329Z,15.10
2019-02-25T14:17:45.161Z,15.10
2019-02-25T14:20:24.842Z,15.10
2019-02-25T14:22:53.424Z,15.20
2019-02-25T14:25:33.472Z,15.20
2019-02-25T14:28:03.066Z,15.10
2019-02-25T14:30:33.381Z,15.10
2019-02-25T14:33:02.194Z,15.10
2019-02-25T14:35:32.123Z,15.20
2019-02-25T14:38:07.641Z,15.10
2019-02-25T14:40:33.633Z,15.10
2019-02-25T14:43:04.119Z,15.10
2019-02-25T14:45:34.463Z,15.10
2019-02-25T14:48:05.426Z,15.10
2019-02-25T14:50:34.027Z,15.00
2019-02-25T14:53:03.960Z,15.00
2019-02-25T14:55:32.834Z,15.10
2019-02-25T14:58:04.486Z,15.00
2019-02-25T15:00:34.465Z,14.90
2019-02-25T15:03:01.897Z,14.90
2019-02-25T15:05:30.430Z,14.80
2019-02-25T15:07:59.179Z,14.80
2019-02-25T15:10:31.337Z,14.70
2019-02-25T15:12:59.110Z,14.70
2019-02-25T15:15:27.938Z,14.70
2019-02-25T15:17:56.686Z,14.70
2019-02-25T15:20:26.135Z,14.70
2019-02-25T15:22:55.600Z,14.70
2019-02-25T15:25:24.229Z,14.40
2019-02-25T15:27:52.874Z,14.40
2019-02-25T15:30:31.252Z,14.30
2019-02-25T15:33:00.348Z,14.20
2019-02-25T15:35:31.658Z,14.20
2019-02-25T15:38:00.493Z,14.20
2019-02-25T15:40:29.305Z,14.10
2019-02-25T15:43:13.312Z,14.10
2019-02-25T15:45:43.686Z,14.00
2019-02-25T15:48:20.855Z,13.90
2019-02-25T15:50:55.557Z,13.90
2019-02-25T15:53:24.694Z,13.70
2019-02-25T15:55:57.221Z,13.70
2019-02-25T15:58:23.451Z,13.60
2019-02-25T16:00:51.952Z,13.50
2019-02-25T16:03:21.027Z,13.30
2019-02-25T16:05:52.321Z,13.30
2019-02-25T16:08:21.283Z,13.30
2019-02-25T16:10:51.307Z,13.20
2019-02-25T16:13:20.630Z,13.20
2019-02-25T16:15:49.403Z,13.10
2019-02-25T16:18:18.094Z,13.00
2019-02-25T16:20:46.723Z,13.00
2019-02-25T16:23:15.287Z,12.90
2019-02-25T16:25:45.649Z,12.70
2019-02-25T16:28:15.698Z,12.70
2019-02-25T16:30:46.720Z,12.60
2019-02-25T16:33:14.932Z,12.60
2019-02-25T16:35:45.487Z,12.50
2019-02-25T16:38:13.596Z,12.50
2019-02-25T16:40:42.025Z,12.40
2019-02-25T16:43:12.695Z,12.30
2019-02-25T16:45:42.572Z,12.20
2019-02-25T16:48:11.881Z,12.10
2019-02-25T16:50:42.170Z,12.00
2019-02-25T16:53:12.765Z,12.00
2019-02-25T16:55:42.753Z,11.90
2019-02-25T16:58:13.204Z,11.90
2019-02-25T17:00:41.803Z,11.80
2019-02-25T17:03:11.173Z,11.70
2019-02-25T17:05:42.824Z,11.60
2019-02-25T17:08:12.799Z,11.30
2019-02-25T17:10:41.410Z,11.10
2019-02-25T17:13:10.883Z,11.00
2019-02-25T17:15:40.172Z,11.00
2019-02-25T17:18:09.062Z,11.00
2019-02-25T17:20:37.750Z,11.00
2019-02-25T17:23:09.478Z,11.00
2019-02-25T17:25:38.416Z,11.00
2019-02-25T17:28:08.137Z,11.00
2019-02-25T17:30:38.553Z,10.50
2019-02-25T17:33:10.045Z,10.50
2019-02-25T17:35:38.994Z,10.50
2019-02-25T17:38:07.564Z,10.30
2019-02-25T17:40:36.037Z,10.00
2019-02-25T17:43:04.782Z,10.00
2019-02-25T17:45:34.424Z,9.90
2019-02-25T17:48:08.095Z,9.90
2019-02-25T17:50:36.562Z,9.80
2019-02-25T17:53:05.123Z,9.80
2019-02-25T17:55:36.233Z,9.80
2019-02-25T17:58:05.047Z,9.70
2019-02-25T18:00:42.313Z,9.70
2019-02-25T18:03:11.164Z,9.50
2019-02-25T18:05:42.616Z,9.60
2019-02-25T18:08:13.269Z,9.50
2019-02-25T18:10:43.190Z,9.50
2019-02-25T18:13:12.367Z,9.20
2019-02-25T18:15:41.314Z,9.10
2019-02-25T18:18:12.587Z,8.70
2019-02-25T18:20:40.107Z,8.40
2019-02-25T18:23:08.984Z,8.20
2019-02-25T18:25:40.098Z,8.10
2019-02-25T18:28:08.468Z,8.50
2019-02-25T18:30:38.806Z,8.60
2019-02-25T18:33:08.032Z,8.60
2019-02-25T18:35:38.712Z,8.30
2019-02-25T18:38:09.268Z,7.80
2019-02-25T18:40:38.757Z,7.80
2019-02-25T18:43:07.579Z,7.70
2019-02-25T18:45:37.804Z,7.70
2019-02-25T18:48:08.093Z,7.70
2019-02-25T18:50:39.136Z,7.50
2019-02-25T18:53:07.205Z,7.30
2019-02-25T18:55:35.780Z,7.00
2019-02-25T18:58:07.932Z,7.00
2019-02-25T19:00:40.047Z,7.20
2019-02-25T19:03:09.799Z,7.30
2019-02-25T19:05:38.460Z,7.40
2019-02-25T19:08:16.824Z,7.40
2019-02-25T19:10:46.103Z,7.50
2019-02-25T19:13:16.005Z,7.50
2019-02-25T19:15:45.659Z,7.50
2019-02-25T19:18:15.970Z,7.50
2019-02-25T19:20:46.259Z,7.60
2019-02-25T19:23:16.579Z,7.70
2019-02-25T19:25:45.344Z,7.80
2019-02-25T19:28:18.566Z,7.70
2019-02-25T19:30:44.381Z,7.50
2019-02-25T19:33:12.884Z,7.30
2019-02-25T19:35:41.752Z,7.30
2019-02-25T19:38:12.800Z,7.20
2019-02-25T19:40:43.053Z,7.40
2019-02-25T19:43:11.273Z,7.40
2019-02-25T19:45:40.917Z,7.50
2019-02-25T19:48:10.252Z,7.70
2019-02-25T19:50:50.253Z,7.40
2019-02-25T19:53:11.811Z,7.50
2019-02-25T19:55:40.988Z,7.50
2019-02-25T19:58:09.567Z,7.50
2019-02-25T20:00:38.223Z,7.50
2019-02-25T20:03:07.090Z,7.60
2019-02-25T20:05:38.973Z,7.50
2019-02-25T20:08:05.782Z,7.40
2019-02-25T20:10:34.670Z,7.30
2019-02-25T20:13:05.333Z,7.10
2019-02-25T20:15:33.324Z,7.00
2019-02-25T20:18:01.910Z,7.00
2019-02-25T20:20:36.545Z,6.80
2019-02-25T20:23:06.260Z,6.50
2019-02-25T20:25:35.303Z,6.60
2019-02-25T20:28:04.388Z,6.70
2019-02-25T20:30:33.111Z,6.70
2019-02-25T20:33:03.310Z,6.90
2019-02-25T20:35:31.754Z,7.00
2019-02-25T20:38:00.465Z,6.90
2019-02-25T20:40:31.028Z,6.70
2019-02-25T20:43:02.871Z,6.80
2019-02-25T20:45:35.263Z,6.70
2019-02-25T20:48:04.088Z,6.80
2019-02-25T20:50:32.580Z,6.30
2019-02-25T20:53:03.669Z,6.10
2019-02-25T20:55:32.102Z,5.80
2019-02-25T20:58:01.412Z,5.70
2019-02-25T21:00:29.903Z,5.60
2019-02-25T21:02:58.343Z,5.40
2019-02-25T21:05:27.366Z,5.40
2019-02-25T21:07:59.155Z,5.40
2019-02-25T21:10:29.317Z,5.30
2019-02-25T21:12:57.144Z,5.20
2019-02-25T21:15:26.578Z,5.00
2019-02-25T21:17:56.819Z,5.20
2019-02-25T21:20:26.036Z,5.40
2019-02-25T21:22:57.826Z,5.40
2019-02-25T21:25:26.863Z,5.40
2019-02-25T21:27:59.237Z,5.90
2019-02-25T21:30:26.023Z,5.30
2019-02-25T21:32:56.558Z,5.30
2019-02-25T21:35:27.587Z,5.20
2019-02-25T21:37:54.762Z,5.10
2019-02-25T21:40:26.890Z,5.20
2019-02-25T21:42:56.565Z,5.50
2019-02-25T21:45:27.102Z,5.80
2019-02-25T21:47:56.556Z,6.00
2019-02-25T21:50:28.331Z,6.00
2019-02-25T21:52:55.188Z,6.10
2019-02-25T21:55:25.735Z,6.20
2019-02-25T21:57:54.920Z,6.20
2019-02-25T22:00:27.025Z,6.20
2019-02-25T22:02:56.099Z,6.10
2019-02-25T22:05:24.742Z,6.10
2019-02-25T22:07:55.340Z,6.10
2019-02-25T22:10:23.352Z,6.00
2019-02-25T22:12:51.770Z,6.10
2019-02-25T22:15:22.365Z,6.00
2019-02-25T22:17:53.163Z,6.00
2019-02-25T22:20:22.557Z,6.00
2019-02-25T22:22:54.523Z,6.00
2019-02-25T22:25:23.585Z,6.00
2019-02-25T22:27:52.129Z,6.00
2019-02-25T22:30:20.834Z,6.00
2019-02-25T22:32:49.267Z,5.90
2019-02-25T22:35:17.776Z,5.80
2019-02-25T22:37:49.219Z,5.80
2019-02-25T22:40:17.612Z,5.70
2019-02-25T22:42:47.943Z,5.80
2019-02-25T22:45:18.863Z,5.80
2019-02-25T22:47:47.523Z,5.80
2019-02-25T22:50:16.009Z,5.70
2019-02-25T22:52:44.490Z,5.70
2019-02-25T22:55:15.249Z,5.60
2019-02-25T22:57:46.092Z,5.60
2019-02-25T23:00:22.652Z,5.60
2019-02-25T23:02:52.817Z,5.30
2019-02-25T23:05:23.277Z,5.30
2019-02-25T23:07:52.277Z,4.90
2019-02-25T23:10:23.695Z,5.20
2019-02-25T23:12:51.985Z,5.30
2019-02-25T23:15:22.585Z,5.30
2019-02-25T23:17:50.651Z,5.30
2019-02-25T23:20:19.086Z,5.30
2019-02-25T23:22:47.502Z,5.30
2019-02-25T23:25:15.938Z,5.30
2019-02-25T23:27:44.365Z,5.30
2019-02-25T23:30:13.942Z,5.30
2019-02-25T23:32:42.412Z,5.20
2019-02-25T23:35:13.570Z,5.20
2019-02-25T23:37:45.153Z,5.10
2019-02-25T23:40:14.293Z,4.30
2019-02-25T23:42:44.222Z,4.30
2019-02-25T23:45:15.434Z,4.40
2019-02-25T23:47:43.983Z,4.30
2019-02-25T23:50:16.767Z,4.60
2019-02-25T23:52:45.187Z,4.70
2019-02-25T23:55:16.527Z,4.60
2019-02-25T23:57:44.311Z,4.70
